sensor_id;sensor_type;location;lat;lon;timestamp;P1;durP1;ratioP1;P2;durP2;ratioP2
33094;SDS011;19459;53.044;8.910;2023-03-17T00:01:40;5.55;;;2.80;;
33094;SDS011;19459;53.044;8.910;2023-03-17T00:04:09;3.40;;;2.42;;
33094;SDS011;19459;53.044;8.910;2023-03-17T00:06:36;8.30;;;3.15;;
33094;SDS011;19459;53.044;8.910;2023-03-17T00:09:03;10.13;;;2.88;;
33094;SDS011;19459;53.044;8.910;2023-03-17T00:11:30;6.70;;;3.45;;
33094;SDS011;19459;53.044;8.910;2023-03-17T00:13:56;4.47;;;2.83;;
33094;SDS011;19459;53.044;8.910;2023-03-17T00:16:22;5.10;;;2.78;;
33094;SDS011;19459;53.044;8.910;2023-03-17T00:18:51;5.15;;;2.60;;
33094;SDS011;19459;53.044;8.910;2023-03-17T00:21:28;3.78;;;2.70;;
33094;SDS011;19459;53.044;8.910;2023-03-17T00:23:56;5.03;;;3.17;;
33094;SDS011;19459;53.044;8.910;2023-03-17T00:26:23;6.43;;;2.65;;
33094;SDS011;19459;53.044;8.910;2023-03-17T00:28:49;6.35;;;2.42;;
33094;SDS011;19459;53.044;8.910;2023-03-17T00:31:17;3.22;;;2.47;;
33094;SDS011;19459;53.044;8.910;2023-03-17T00:33:48;7.32;;;3.03;;
33094;SDS011;19459;53.044;8.910;2023-03-17T00:36:19;4.35;;;2.88;;
33094;SDS011;19459;53.044;8.910;2023-03-17T00:38:48;4.68;;;2.75;;
33094;SDS011;19459;53.044;8.910;2023-03-17T00:41:15;4.95;;;2.95;;
33094;SDS011;19459;53.044;8.910;2023-03-17T00:43:41;6.53;;;2.60;;
33094;SDS011;19459;53.044;8.910;2023-03-17T00:46:14;4.03;;;2.78;;
33094;SDS011;19459;53.044;8.910;2023-03-17T00:48:42;5.38;;;2.97;;
33094;SDS011;19459;53.044;8.910;2023-03-17T00:51:09;5.63;;;3.08;;
33094;SDS011;19459;53.044;8.910;2023-03-17T00:53:36;5.18;;;2.75;;
33094;SDS011;19459;53.044;8.910;2023-03-17T00:56:02;6.68;;;3.17;;
33094;SDS011;19459;53.044;8.910;2023-03-17T00:58:32;4.10;;;2.67;;
33094;SDS011;19459;53.044;8.910;2023-03-17T01:00:58;6.90;;;3.00;;
33094;SDS011;19459;53.044;8.910;2023-03-17T01:03:25;3.42;;;2.55;;
33094;SDS011;19459;53.044;8.910;2023-03-17T01:05:52;5.95;;;3.10;;
33094;SDS011;19459;53.044;8.910;2023-03-17T01:08:21;6.30;;;2.80;;
33094;SDS011;19459;53.044;8.910;2023-03-17T01:10:47;7.22;;;3.13;;
33094;SDS011;19459;53.044;8.910;2023-03-17T01:13:13;6.00;;;2.85;;
33094;SDS011;19459;53.044;8.910;2023-03-17T01:15:40;6.03;;;3.05;;
33094;SDS011;19459;53.044;8.910;2023-03-17T01:18:10;5.47;;;2.85;;
33094;SDS011;19459;53.044;8.910;2023-03-17T01:20:38;7.63;;;2.90;;
33094;SDS011;19459;53.044;8.910;2023-03-17T01:23:04;3.70;;;2.40;;
33094;SDS011;19459;53.044;8.910;2023-03-17T01:25:31;7.15;;;3.67;;
33094;SDS011;19459;53.044;8.910;2023-03-17T01:27:58;9.02;;;3.45;;
33094;SDS011;19459;53.044;8.910;2023-03-17T01:30:25;5.18;;;2.40;;
33094;SDS011;19459;53.044;8.910;2023-03-17T01:32:56;3.58;;;2.50;;
33094;SDS011;19459;53.044;8.910;2023-03-17T01:35:24;9.18;;;2.95;;
33094;SDS011;19459;53.044;8.910;2023-03-17T01:37:53;3.92;;;2.55;;
33094;SDS011;19459;53.044;8.910;2023-03-17T01:40:29;4.85;;;2.67;;
33094;SDS011;19459;53.044;8.910;2023-03-17T01:42:59;5.10;;;2.20;;
33094;SDS011;19459;53.044;8.910;2023-03-17T01:51:18;4.10;;;2.95;;
33094;SDS011;19459;53.044;8.910;2023-03-17T01:54:07;6.25;;;2.67;;
33094;SDS011;19459;53.044;8.910;2023-03-17T01:56:38;4.75;;;3.42;;
33094;SDS011;19459;53.044;8.910;2023-03-17T01:59:08;6.90;;;3.63;;
33094;SDS011;19459;53.044;8.910;2023-03-17T02:01:41;7.82;;;4.18;;
33094;SDS011;19459;53.044;8.910;2023-03-17T02:04:11;5.72;;;3.20;;
33094;SDS011;19459;53.044;8.910;2023-03-17T02:06:37;3.72;;;2.67;;
33094;SDS011;19459;53.044;8.910;2023-03-17T02:09:04;7.03;;;3.05;;
33094;SDS011;19459;53.044;8.910;2023-03-17T02:11:30;5.50;;;2.97;;
33094;SDS011;19459;53.044;8.910;2023-03-17T02:13:58;5.97;;;2.45;;
33094;SDS011;19459;53.044;8.910;2023-03-17T02:16:23;4.88;;;3.10;;
33094;SDS011;19459;53.044;8.910;2023-03-17T02:18:50;4.07;;;2.90;;
33094;SDS011;19459;53.044;8.910;2023-03-17T02:24:36;8.88;;;3.35;;
33094;SDS011;19459;53.044;8.910;2023-03-17T02:27:21;10.57;;;3.28;;
33094;SDS011;19459;53.044;8.910;2023-03-17T02:29:55;6.43;;;3.00;;
33094;SDS011;19459;53.044;8.910;2023-03-17T02:32:22;4.05;;;2.80;;
33094;SDS011;19459;53.044;8.910;2023-03-17T02:34:48;5.20;;;3.10;;
33094;SDS011;19459;53.044;8.910;2023-03-17T02:37:15;3.88;;;2.88;;
33094;SDS011;19459;53.044;8.910;2023-03-17T02:39:42;4.72;;;2.88;;
33094;SDS011;19459;53.044;8.910;2023-03-17T02:42:08;3.83;;;2.83;;
33094;SDS011;19459;53.044;8.910;2023-03-17T02:44:36;8.73;;;3.50;;
33094;SDS011;19459;53.044;8.910;2023-03-17T02:47:03;4.38;;;3.00;;
33094;SDS011;19459;53.044;8.910;2023-03-17T02:49:29;5.93;;;3.00;;
33094;SDS011;19459;53.044;8.910;2023-03-17T02:51:56;5.15;;;3.03;;
33094;SDS011;19459;53.044;8.910;2023-03-17T02:54:22;5.45;;;2.70;;
33094;SDS011;19459;53.044;8.910;2023-03-17T02:56:47;5.47;;;3.25;;
33094;SDS011;19459;53.044;8.910;2023-03-17T02:59:13;6.40;;;3.10;;
33094;SDS011;19459;53.044;8.910;2023-03-17T03:01:40;4.47;;;2.83;;
33094;SDS011;19459;53.044;8.910;2023-03-17T03:04:06;4.20;;;3.25;;
33094;SDS011;19459;53.044;8.910;2023-03-17T03:06:32;6.03;;;3.13;;
33094;SDS011;19459;53.044;8.910;2023-03-17T03:08:59;5.43;;;3.42;;
33094;SDS011;19459;53.044;8.910;2023-03-17T03:11:25;4.78;;;3.42;;
33094;SDS011;19459;53.044;8.910;2023-03-17T03:13:53;9.45;;;3.33;;
33094;SDS011;19459;53.044;8.910;2023-03-17T03:16:18;8.02;;;3.38;;
33094;SDS011;19459;53.044;8.910;2023-03-17T03:18:44;5.05;;;3.28;;
33094;SDS011;19459;53.044;8.910;2023-03-17T03:21:11;6.22;;;3.35;;
33094;SDS011;19459;53.044;8.910;2023-03-17T03:23:37;6.72;;;3.35;;
33094;SDS011;19459;53.044;8.910;2023-03-17T03:26:02;4.03;;;2.90;;
33094;SDS011;19459;53.044;8.910;2023-03-17T03:28:28;4.85;;;3.17;;
33094;SDS011;19459;53.044;8.910;2023-03-17T03:30:55;5.88;;;3.70;;
33094;SDS011;19459;53.044;8.910;2023-03-17T03:33:20;7.30;;;3.55;;
33094;SDS011;19459;53.044;8.910;2023-03-17T03:35:46;5.55;;;3.85;;
33094;SDS011;19459;53.044;8.910;2023-03-17T03:38:12;6.65;;;3.53;;
33094;SDS011;19459;53.044;8.910;2023-03-17T03:40:38;7.82;;;4.10;;
33094;SDS011;19459;53.044;8.910;2023-03-17T03:43:04;7.65;;;3.58;;
33094;SDS011;19459;53.044;8.910;2023-03-17T03:45:31;6.13;;;3.50;;
33094;SDS011;19459;53.044;8.910;2023-03-17T03:47:57;8.73;;;4.47;;
33094;SDS011;19459;53.044;8.910;2023-03-17T03:50:22;4.32;;;3.33;;
33094;SDS011;19459;53.044;8.910;2023-03-17T03:52:48;7.88;;;3.78;;
33094;SDS011;19459;53.044;8.910;2023-03-17T03:55:14;6.03;;;3.80;;
33094;SDS011;19459;53.044;8.910;2023-03-17T03:57:41;6.00;;;3.80;;
33094;SDS011;19459;53.044;8.910;2023-03-17T04:00:07;3.80;;;3.13;;
33094;SDS011;19459;53.044;8.910;2023-03-17T04:02:35;7.25;;;4.30;;
33094;SDS011;19459;53.044;8.910;2023-03-17T04:05:05;6.35;;;3.90;;
33094;SDS011;19459;53.044;8.910;2023-03-17T04:07:33;7.30;;;3.70;;
33094;SDS011;19459;53.044;8.910;2023-03-17T04:10:00;9.45;;;3.85;;
33094;SDS011;19459;53.044;8.910;2023-03-17T04:12:27;8.52;;;4.40;;
33094;SDS011;19459;53.044;8.910;2023-03-17T04:14:53;5.45;;;3.70;;
33094;SDS011;19459;53.044;8.910;2023-03-17T04:17:19;6.13;;;3.88;;
33094;SDS011;19459;53.044;8.910;2023-03-17T04:19:45;5.53;;;3.30;;
33094;SDS011;19459;53.044;8.910;2023-03-17T04:22:11;5.47;;;3.65;;
33094;SDS011;19459;53.044;8.910;2023-03-17T04:24:37;5.50;;;3.83;;
33094;SDS011;19459;53.044;8.910;2023-03-17T04:27:03;8.18;;;3.13;;
33094;SDS011;19459;53.044;8.910;2023-03-17T04:29:29;6.65;;;3.63;;
33094;SDS011;19459;53.044;8.910;2023-03-17T04:31:55;6.70;;;3.75;;
33094;SDS011;19459;53.044;8.910;2023-03-17T04:34:21;7.13;;;3.67;;
33094;SDS011;19459;53.044;8.910;2023-03-17T04:36:47;7.82;;;4.32;;
33094;SDS011;19459;53.044;8.910;2023-03-17T04:39:14;8.98;;;4.07;;
33094;SDS011;19459;53.044;8.910;2023-03-17T04:41:40;6.30;;;4.38;;
33094;SDS011;19459;53.044;8.910;2023-03-17T04:44:06;6.43;;;3.95;;
33094;SDS011;19459;53.044;8.910;2023-03-17T04:46:32;8.27;;;3.50;;
33094;SDS011;19459;53.044;8.910;2023-03-17T04:48:59;6.03;;;3.53;;
33094;SDS011;19459;53.044;8.910;2023-03-17T04:51:25;6.72;;;4.07;;
33094;SDS011;19459;53.044;8.910;2023-03-17T04:53:52;7.65;;;4.22;;
33094;SDS011;19459;53.044;8.910;2023-03-17T04:56:18;8.85;;;3.55;;
33094;SDS011;19459;53.044;8.910;2023-03-17T04:58:45;11.73;;;4.85;;
33094;SDS011;19459;53.044;8.910;2023-03-17T05:01:10;9.52;;;4.22;;
33094;SDS011;19459;53.044;8.910;2023-03-17T05:03:36;7.85;;;4.53;;
33094;SDS011;19459;53.044;8.910;2023-03-17T05:06:02;9.52;;;4.50;;
33094;SDS011;19459;53.044;8.910;2023-03-17T05:08:30;9.55;;;3.72;;
33094;SDS011;19459;53.044;8.910;2023-03-17T05:10:56;6.20;;;3.92;;
33094;SDS011;19459;53.044;8.910;2023-03-17T05:13:22;6.78;;;4.28;;
33094;SDS011;19459;53.044;8.910;2023-03-17T05:15:50;6.72;;;3.90;;
33094;SDS011;19459;53.044;8.910;2023-03-17T05:18:18;9.50;;;3.92;;
33094;SDS011;19459;53.044;8.910;2023-03-17T05:20:47;7.03;;;3.33;;
33094;SDS011;19459;53.044;8.910;2023-03-17T05:23:12;9.35;;;4.20;;
33094;SDS011;19459;53.044;8.910;2023-03-17T05:25:39;12.38;;;5.68;;
33094;SDS011;19459;53.044;8.910;2023-03-17T05:28:06;9.18;;;4.07;;
33094;SDS011;19459;53.044;8.910;2023-03-17T05:30:32;8.20;;;4.68;;
33094;SDS011;19459;53.044;8.910;2023-03-17T05:33:00;6.07;;;4.07;;
33094;SDS011;19459;53.044;8.910;2023-03-17T05:35:26;10.40;;;4.75;;
33094;SDS011;19459;53.044;8.910;2023-03-17T05:37:52;7.22;;;3.90;;
33094;SDS011;19459;53.044;8.910;2023-03-17T05:40:18;7.03;;;4.60;;
33094;SDS011;19459;53.044;8.910;2023-03-17T05:42:45;7.70;;;4.70;;
33094;SDS011;19459;53.044;8.910;2023-03-17T05:45:11;10.68;;;5.20;;
33094;SDS011;19459;53.044;8.910;2023-03-17T05:47:37;8.93;;;5.10;;
33094;SDS011;19459;53.044;8.910;2023-03-17T05:50:03;10.70;;;4.63;;
33094;SDS011;19459;53.044;8.910;2023-03-17T05:52:30;5.80;;;3.70;;
33094;SDS011;19459;53.044;8.910;2023-03-17T05:54:56;7.78;;;4.82;;
33094;SDS011;19459;53.044;8.910;2023-03-17T05:57:22;9.43;;;4.75;;
33094;SDS011;19459;53.044;8.910;2023-03-17T05:59:48;6.00;;;4.13;;
33094;SDS011;19459;53.044;8.910;2023-03-17T06:02:14;6.65;;;4.10;;
33094;SDS011;19459;53.044;8.910;2023-03-17T06:04:40;6.60;;;4.60;;
33094;SDS011;19459;53.044;8.910;2023-03-17T06:07:07;11.15;;;4.97;;
33094;SDS011;19459;53.044;8.910;2023-03-17T06:09:34;10.07;;;4.90;;
33094;SDS011;19459;53.044;8.910;2023-03-17T06:12:00;7.25;;;4.82;;
33094;SDS011;19459;53.044;8.910;2023-03-17T06:14:26;6.97;;;4.50;;
33094;SDS011;19459;53.044;8.910;2023-03-17T06:16:52;8.80;;;4.60;;
33094;SDS011;19459;53.044;8.910;2023-03-17T06:19:18;7.57;;;4.63;;
33094;SDS011;19459;53.044;8.910;2023-03-17T06:21:43;7.20;;;5.03;;
33094;SDS011;19459;53.044;8.910;2023-03-17T06:24:09;7.40;;;4.13;;
33094;SDS011;19459;53.044;8.910;2023-03-17T06:26:35;7.30;;;5.57;;
33094;SDS011;19459;53.044;8.910;2023-03-17T06:29:04;8.98;;;5.03;;
33094;SDS011;19459;53.044;8.910;2023-03-17T06:31:33;11.10;;;4.50;;
33094;SDS011;19459;53.044;8.910;2023-03-17T06:34:01;8.40;;;4.20;;
33094;SDS011;19459;53.044;8.910;2023-03-17T06:36:27;10.80;;;4.20;;
33094;SDS011;19459;53.044;8.910;2023-03-17T06:38:54;7.80;;;5.15;;
33094;SDS011;19459;53.044;8.910;2023-03-17T06:41:20;7.72;;;4.75;;
33094;SDS011;19459;53.044;8.910;2023-03-17T06:43:46;9.00;;;4.68;;
33094;SDS011;19459;53.044;8.910;2023-03-17T06:46:11;8.65;;;4.93;;
33094;SDS011;19459;53.044;8.910;2023-03-17T06:48:37;9.23;;;4.78;;
33094;SDS011;19459;53.044;8.910;2023-03-17T06:51:03;5.93;;;4.22;;
33094;SDS011;19459;53.044;8.910;2023-03-17T06:53:29;9.70;;;5.03;;
33094;SDS011;19459;53.044;8.910;2023-03-17T06:55:56;10.05;;;5.80;;
33094;SDS011;19459;53.044;8.910;2023-03-17T06:58:22;10.95;;;4.72;;
33094;SDS011;19459;53.044;8.910;2023-03-17T07:00:48;5.25;;;4.07;;
33094;SDS011;19459;53.044;8.910;2023-03-17T07:03:18;9.52;;;5.07;;
33094;SDS011;19459;53.044;8.910;2023-03-17T07:05:46;11.45;;;6.22;;
33094;SDS011;19459;53.044;8.910;2023-03-17T07:08:13;10.70;;;5.53;;
33094;SDS011;19459;53.044;8.910;2023-03-17T07:10:40;8.60;;;4.47;;
33094;SDS011;19459;53.044;8.910;2023-03-17T07:13:07;8.52;;;5.55;;
33094;SDS011;19459;53.044;8.910;2023-03-17T07:15:34;9.07;;;4.85;;
33094;SDS011;19459;53.044;8.910;2023-03-17T07:18:01;9.15;;;5.88;;
33094;SDS011;19459;53.044;8.910;2023-03-17T07:20:28;10.55;;;4.88;;
33094;SDS011;19459;53.044;8.910;2023-03-17T07:22:55;12.55;;;6.45;;
33094;SDS011;19459;53.044;8.910;2023-03-17T07:25:21;13.00;;;5.13;;
33094;SDS011;19459;53.044;8.910;2023-03-17T07:27:48;10.27;;;5.43;;
33094;SDS011;19459;53.044;8.910;2023-03-17T07:30:14;9.65;;;5.35;;
33094;SDS011;19459;53.044;8.910;2023-03-17T07:32:43;10.10;;;5.55;;
33094;SDS011;19459;53.044;8.910;2023-03-17T07:35:19;7.72;;;5.10;;
33094;SDS011;19459;53.044;8.910;2023-03-17T07:37:46;11.70;;;5.85;;
33094;SDS011;19459;53.044;8.910;2023-03-17T07:40:12;14.90;;;7.82;;
33094;SDS011;19459;53.044;8.910;2023-03-17T07:42:38;21.65;;;10.80;;
33094;SDS011;19459;53.044;8.910;2023-03-17T07:45:04;33.90;;;15.18;;
33094;SDS011;19459;53.044;8.910;2023-03-17T07:47:31;8.70;;;5.22;;
33094;SDS011;19459;53.044;8.910;2023-03-17T07:49:57;8.73;;;4.82;;
33094;SDS011;19459;53.044;8.910;2023-03-17T07:52:23;11.00;;;6.32;;
33094;SDS011;19459;53.044;8.910;2023-03-17T07:54:49;7.45;;;4.32;;
33094;SDS011;19459;53.044;8.910;2023-03-17T07:57:16;9.93;;;5.38;;
33094;SDS011;19459;53.044;8.910;2023-03-17T07:59:45;9.20;;;6.05;;
33094;SDS011;19459;53.044;8.910;2023-03-17T08:02:17;9.90;;;5.45;;
33094;SDS011;19459;53.044;8.910;2023-03-17T08:04:43;8.70;;;5.20;;
33094;SDS011;19459;53.044;8.910;2023-03-17T08:07:09;7.20;;;4.78;;
33094;SDS011;19459;53.044;8.910;2023-03-17T08:09:36;8.82;;;4.65;;
33094;SDS011;19459;53.044;8.910;2023-03-17T08:12:03;8.32;;;5.40;;
33094;SDS011;19459;53.044;8.910;2023-03-17T08:14:30;9.55;;;4.82;;
33094;SDS011;19459;53.044;8.910;2023-03-17T08:16:58;9.38;;;4.85;;
33094;SDS011;19459;53.044;8.910;2023-03-17T08:19:23;8.85;;;4.65;;
33094;SDS011;19459;53.044;8.910;2023-03-17T08:21:49;7.47;;;5.13;;
33094;SDS011;19459;53.044;8.910;2023-03-17T08:24:15;7.50;;;4.45;;
33094;SDS011;19459;53.044;8.910;2023-03-17T08:26:41;7.82;;;4.68;;
33094;SDS011;19459;53.044;8.910;2023-03-17T08:29:07;7.40;;;4.47;;
33094;SDS011;19459;53.044;8.910;2023-03-17T08:31:34;6.97;;;4.97;;
33094;SDS011;19459;53.044;8.910;2023-03-17T08:34:00;6.82;;;4.90;;
33094;SDS011;19459;53.044;8.910;2023-03-17T08:36:27;8.02;;;5.07;;
33094;SDS011;19459;53.044;8.910;2023-03-17T08:38:53;9.07;;;4.95;;
33094;SDS011;19459;53.044;8.910;2023-03-17T08:41:21;9.95;;;4.97;;
33094;SDS011;19459;53.044;8.910;2023-03-17T08:43:48;7.65;;;5.25;;
33094;SDS011;19459;53.044;8.910;2023-03-17T08:46:19;7.18;;;4.85;;
33094;SDS011;19459;53.044;8.910;2023-03-17T08:48:51;8.98;;;4.63;;
33094;SDS011;19459;53.044;8.910;2023-03-17T08:51:20;8.90;;;4.82;;
33094;SDS011;19459;53.044;8.910;2023-03-17T08:53:49;6.93;;;4.82;;
33094;SDS011;19459;53.044;8.910;2023-03-17T08:56:16;7.15;;;4.28;;
33094;SDS011;19459;53.044;8.910;2023-03-17T08:58:42;9.35;;;4.85;;
33094;SDS011;19459;53.044;8.910;2023-03-17T09:01:08;7.65;;;5.07;;
33094;SDS011;19459;53.044;8.910;2023-03-17T09:03:35;7.28;;;4.85;;
33094;SDS011;19459;53.044;8.910;2023-03-17T09:06:03;6.68;;;4.97;;
33094;SDS011;19459;53.044;8.910;2023-03-17T09:08:31;10.80;;;5.70;;
33094;SDS011;19459;53.044;8.910;2023-03-17T09:10:59;9.25;;;4.55;;
33094;SDS011;19459;53.044;8.910;2023-03-17T09:13:27;10.90;;;5.63;;
33094;SDS011;19459;53.044;8.910;2023-03-17T09:15:53;10.20;;;5.32;;
33094;SDS011;19459;53.044;8.910;2023-03-17T09:18:20;9.70;;;4.63;;
33094;SDS011;19459;53.044;8.910;2023-03-17T09:20:46;7.10;;;5.32;;
33094;SDS011;19459;53.044;8.910;2023-03-17T09:23:12;7.75;;;5.43;;
33094;SDS011;19459;53.044;8.910;2023-03-17T09:25:38;8.95;;;5.07;;
33094;SDS011;19459;53.044;8.910;2023-03-17T09:28:09;12.38;;;4.40;;
33094;SDS011;19459;53.044;8.910;2023-03-17T09:30:36;6.35;;;4.75;;
33094;SDS011;19459;53.044;8.910;2023-03-17T09:33:05;8.40;;;5.55;;
33094;SDS011;19459;53.044;8.910;2023-03-17T09:35:31;9.38;;;5.70;;
33094;SDS011;19459;53.044;8.910;2023-03-17T09:37:57;8.32;;;4.25;;
33094;SDS011;19459;53.044;8.910;2023-03-17T09:40:26;9.23;;;5.95;;
33094;SDS011;19459;53.044;8.910;2023-03-17T09:52:11;12.10;;;5.43;;
33094;SDS011;19459;53.044;8.910;2023-03-17T09:54:40;9.80;;;6.18;;
33094;SDS011;19459;53.044;8.910;2023-03-17T09:57:16;7.78;;;4.60;;
33094;SDS011;19459;53.044;8.910;2023-03-17T09:59:56;6.93;;;4.50;;
33094;SDS011;19459;53.044;8.910;2023-03-17T10:02:38;6.95;;;4.53;;
33094;SDS011;19459;53.044;8.910;2023-03-17T10:17:27;7.82;;;4.75;;
33094;SDS011;19459;53.044;8.910;2023-03-17T10:19:46;7.88;;;4.85;;
33094;SDS011;19459;53.044;8.910;2023-03-17T10:22:33;9.10;;;4.53;;
33094;SDS011;19459;53.044;8.910;2023-03-17T10:25:15;8.48;;;4.70;;
33094;SDS011;19459;53.044;8.910;2023-03-17T10:27:54;6.65;;;3.92;;
33094;SDS011;19459;53.044;8.910;2023-03-17T10:30:44;8.18;;;5.45;;
33094;SDS011;19459;53.044;8.910;2023-03-17T10:33:10;6.40;;;3.85;;
33094;SDS011;19459;53.044;8.910;2023-03-17T10:35:37;5.93;;;4.68;;
33094;SDS011;19459;53.044;8.910;2023-03-17T10:38:12;7.80;;;4.90;;
33094;SDS011;19459;53.044;8.910;2023-03-17T10:40:44;5.97;;;4.43;;
33094;SDS011;19459;53.044;8.910;2023-03-17T10:43:17;9.35;;;4.40;;
33094;SDS011;19459;53.044;8.910;2023-03-17T10:45:57;7.35;;;4.10;;
33094;SDS011;19459;53.044;8.910;2023-03-17T10:48:26;10.48;;;4.10;;
33094;SDS011;19459;53.044;8.910;2023-03-17T10:51:04;7.45;;;4.72;;
33094;SDS011;19459;53.044;8.910;2023-03-17T10:53:37;7.07;;;4.47;;
33094;SDS011;19459;53.044;8.910;2023-03-17T10:56:17;8.95;;;4.85;;
33094;SDS011;19459;53.044;8.910;2023-03-17T10:58:49;9.45;;;5.05;;
33094;SDS011;19459;53.044;8.910;2023-03-17T11:04:22;9.50;;;5.57;;
33094;SDS011;19459;53.044;8.910;2023-03-17T11:06:57;8.07;;;5.32;;
33094;SDS011;19459;53.044;8.910;2023-03-17T11:09:33;7.32;;;4.65;;
33094;SDS011;19459;53.044;8.910;2023-03-17T11:12:04;8.43;;;4.43;;
33094;SDS011;19459;53.044;8.910;2023-03-17T11:14:44;7.03;;;4.22;;
33094;SDS011;19459;53.044;8.910;2023-03-17T11:17:25;10.93;;;5.63;;
33094;SDS011;19459;53.044;8.910;2023-03-17T11:23:08;6.60;;;4.13;;
33094;SDS011;19459;53.044;8.910;2023-03-17T11:26:15;6.97;;;4.43;;
33094;SDS011;19459;53.044;8.910;2023-03-17T11:46:50;9.27;;;5.85;;
33094;SDS011;19459;53.044;8.910;2023-03-17T11:49:46;8.45;;;4.45;;
33094;SDS011;19459;53.044;8.910;2023-03-17T11:52:45;7.13;;;4.72;;
33094;SDS011;19459;53.044;8.910;2023-03-17T11:55:32;8.85;;;5.38;;
33094;SDS011;19459;53.044;8.910;2023-03-17T12:00:59;8.98;;;4.65;;
33094;SDS011;19459;53.044;8.910;2023-03-17T12:03:40;7.68;;;3.67;;
33094;SDS011;19459;53.044;8.910;2023-03-17T12:06:38;5.70;;;4.03;;
33094;SDS011;19459;53.044;8.910;2023-03-17T12:09:29;8.45;;;4.15;;
33094;SDS011;19459;53.044;8.910;2023-03-17T12:12:27;6.03;;;4.10;;
33094;SDS011;19459;53.044;8.910;2023-03-17T12:15:00;7.15;;;5.10;;
33094;SDS011;19459;53.044;8.910;2023-03-17T12:17:38;8.35;;;4.03;;
33094;SDS011;19459;53.044;8.910;2023-03-17T12:20:15;6.03;;;4.20;;
33094;SDS011;19459;53.044;8.910;2023-03-17T12:28:50;8.30;;;4.70;;
33094;SDS011;19459;53.044;8.910;2023-03-17T12:31:24;9.18;;;5.03;;
33094;SDS011;19459;53.044;8.910;2023-03-17T12:34:13;7.00;;;4.30;;
33094;SDS011;19459;53.044;8.910;2023-03-17T12:36:47;10.27;;;4.45;;
33094;SDS011;19459;53.044;8.910;2023-03-17T12:39:15;8.38;;;5.05;;
33094;SDS011;19459;53.044;8.910;2023-03-17T12:50:48;7.20;;;4.68;;
33094;SDS011;19459;53.044;8.910;2023-03-17T12:53:30;7.95;;;4.40;;
33094;SDS011;19459;53.044;8.910;2023-03-17T12:56:09;8.52;;;4.55;;
33094;SDS011;19459;53.044;8.910;2023-03-17T12:58:44;11.27;;;5.30;;
33094;SDS011;19459;53.044;8.910;2023-03-17T13:06:45;8.40;;;4.85;;
33094;SDS011;19459;53.044;8.910;2023-03-17T13:10:09;10.75;;;4.85;;
33094;SDS011;19459;53.044;8.910;2023-03-17T13:15:16;10.10;;;4.43;;
33094;SDS011;19459;53.044;8.910;2023-03-17T13:23:23;7.10;;;4.63;;
33094;SDS011;19459;53.044;8.910;2023-03-17T13:26:06;10.00;;;5.25;;
33094;SDS011;19459;53.044;8.910;2023-03-17T13:34:13;7.63;;;4.88;;
33094;SDS011;19459;53.044;8.910;2023-03-17T13:42:31;10.95;;;4.90;;
33094;SDS011;19459;53.044;8.910;2023-03-17T13:45:37;8.00;;;4.75;;
33094;SDS011;19459;53.044;8.910;2023-03-17T13:53:38;9.27;;;4.72;;
33094;SDS011;19459;53.044;8.910;2023-03-17T13:56:25;8.95;;;4.60;;
33094;SDS011;19459;53.044;8.910;2023-03-17T13:59:11;9.23;;;5.22;;
33094;SDS011;19459;53.044;8.910;2023-03-17T14:02:00;10.57;;;6.32;;
33094;SDS011;19459;53.044;8.910;2023-03-17T14:07:53;8.70;;;5.13;;
33094;SDS011;19459;53.044;8.910;2023-03-17T14:10:27;10.27;;;5.90;;
33094;SDS011;19459;53.044;8.910;2023-03-17T14:12:58;7.65;;;5.13;;
33094;SDS011;19459;53.044;8.910;2023-03-17T14:15:45;9.65;;;5.15;;
33094;SDS011;19459;53.044;8.910;2023-03-17T14:18:31;8.18;;;4.97;;
33094;SDS011;19459;53.044;8.910;2023-03-17T14:21:00;14.52;;;7.80;;
33094;SDS011;19459;53.044;8.910;2023-03-17T14:23:30;11.13;;;6.65;;
33094;SDS011;19459;53.044;8.910;2023-03-17T14:25:58;22.25;;;11.20;;
33094;SDS011;19459;53.044;8.910;2023-03-17T14:28:27;10.95;;;6.72;;
33094;SDS011;19459;53.044;8.910;2023-03-17T14:31:03;14.23;;;8.52;;
33094;SDS011;19459;53.044;8.910;2023-03-17T14:33:32;17.80;;;9.68;;
33094;SDS011;19459;53.044;8.910;2023-03-17T14:36:04;17.90;;;6.47;;
33094;SDS011;19459;53.044;8.910;2023-03-17T14:38:36;20.95;;;11.63;;
33094;SDS011;19459;53.044;8.910;2023-03-17T14:41:05;19.48;;;11.90;;
33094;SDS011;19459;53.044;8.910;2023-03-17T14:43:43;14.57;;;8.35;;
33094;SDS011;19459;53.044;8.910;2023-03-17T14:46:13;13.18;;;8.57;;
33094;SDS011;19459;53.044;8.910;2023-03-17T14:48:50;13.75;;;5.93;;
33094;SDS011;19459;53.044;8.910;2023-03-17T14:51:40;12.35;;;7.07;;
33094;SDS011;19459;53.044;8.910;2023-03-17T14:54:12;12.82;;;7.60;;
33094;SDS011;19459;53.044;8.910;2023-03-17T14:56:42;12.65;;;5.97;;
33094;SDS011;19459;53.044;8.910;2023-03-17T14:59:19;10.10;;;6.25;;
33094;SDS011;19459;53.044;8.910;2023-03-17T15:01:55;30.38;;;17.45;;
33094;SDS011;19459;53.044;8.910;2023-03-17T15:04:24;16.63;;;10.05;;
33094;SDS011;19459;53.044;8.910;2023-03-17T15:14:48;17.75;;;9.23;;
33094;SDS011;19459;53.044;8.910;2023-03-17T15:17:21;12.27;;;8.63;;
33094;SDS011;19459;53.044;8.910;2023-03-17T15:19:54;13.52;;;7.90;;
33094;SDS011;19459;53.044;8.910;2023-03-17T15:22:30;13.88;;;7.63;;
33094;SDS011;19459;53.044;8.910;2023-03-17T15:27:44;12.00;;;6.75;;
33094;SDS011;19459;53.044;8.910;2023-03-17T15:30:14;12.40;;;6.78;;
33094;SDS011;19459;53.044;8.910;2023-03-17T15:32:41;12.27;;;7.07;;
33094;SDS011;19459;53.044;8.910;2023-03-17T15:35:10;7.78;;;5.72;;
33094;SDS011;19459;53.044;8.910;2023-03-17T15:37:37;11.15;;;6.20;;
33094;SDS011;19459;53.044;8.910;2023-03-17T15:40:06;11.05;;;5.97;;
33094;SDS011;19459;53.044;8.910;2023-03-17T15:42:34;10.70;;;5.88;;
33094;SDS011;19459;53.044;8.910;2023-03-17T15:45:03;12.88;;;6.38;;
33094;SDS011;19459;53.044;8.910;2023-03-17T15:47:31;11.43;;;6.30;;
33094;SDS011;19459;53.044;8.910;2023-03-17T15:50:05;10.35;;;6.00;;
33094;SDS011;19459;53.044;8.910;2023-03-17T15:52:40;9.32;;;5.60;;
33094;SDS011;19459;53.044;8.910;2023-03-17T15:55:14;9.50;;;5.85;;
33094;SDS011;19459;53.044;8.910;2023-03-17T15:57:45;10.43;;;5.43;;
33094;SDS011;19459;53.044;8.910;2023-03-17T16:00:17;9.75;;;5.97;;
33094;SDS011;19459;53.044;8.910;2023-03-17T16:02:45;9.00;;;5.63;;
33094;SDS011;19459;53.044;8.910;2023-03-17T16:07:44;9.48;;;5.47;;
33094;SDS011;19459;53.044;8.910;2023-03-17T16:10:18;17.60;;;6.07;;
33094;SDS011;19459;53.044;8.910;2023-03-17T16:12:50;9.93;;;5.88;;
33094;SDS011;19459;53.044;8.910;2023-03-17T16:15:16;7.90;;;5.95;;
33094;SDS011;19459;53.044;8.910;2023-03-17T16:17:46;11.27;;;5.78;;
33094;SDS011;19459;53.044;8.910;2023-03-17T16:22:56;9.50;;;5.38;;
33094;SDS011;19459;53.044;8.910;2023-03-17T16:27:57;14.07;;;5.93;;
33094;SDS011;19459;53.044;8.910;2023-03-17T16:30:26;10.02;;;5.07;;
33094;SDS011;19459;53.044;8.910;2023-03-17T16:32:59;8.57;;;6.18;;
33094;SDS011;19459;53.044;8.910;2023-03-17T16:35:28;7.38;;;4.68;;
33094;SDS011;19459;53.044;8.910;2023-03-17T16:37:54;12.13;;;5.20;;
33094;SDS011;19459;53.044;8.910;2023-03-17T16:42:50;9.25;;;5.57;;
33094;SDS011;19459;53.044;8.910;2023-03-17T16:45:27;9.48;;;5.68;;
33094;SDS011;19459;53.044;8.910;2023-03-17T16:47:57;9.98;;;5.93;;
33094;SDS011;19459;53.044;8.910;2023-03-17T16:50:26;11.23;;;5.35;;
33094;SDS011;19459;53.044;8.910;2023-03-17T16:52:55;10.77;;;6.10;;
33094;SDS011;19459;53.044;8.910;2023-03-17T16:55:21;10.55;;;5.68;;
33094;SDS011;19459;53.044;8.910;2023-03-17T16:57:49;12.32;;;5.68;;
33094;SDS011;19459;53.044;8.910;2023-03-17T17:00:26;8.02;;;5.72;;
33094;SDS011;19459;53.044;8.910;2023-03-17T17:02:53;9.82;;;6.43;;
33094;SDS011;19459;53.044;8.910;2023-03-17T17:05:23;12.50;;;6.10;;
33094;SDS011;19459;53.044;8.910;2023-03-17T17:07:53;13.70;;;6.65;;
33094;SDS011;19459;53.044;8.910;2023-03-17T17:10:21;10.98;;;6.85;;